createdAt,value
2022-09-04T00:00:00.725Z,15.23
2022-09-04T00:04:10.939Z,15.36
2022-09-04T00:08:27.780Z,15.23
2022-09-04T00:12:38.073Z,15.32
2022-09-04T00:17:00.352Z,15.31
2022-09-04T00:21:21.588Z,15.14
2022-09-04T00:25:33.206Z,15.18
2022-09-04T00:29:49.869Z,15.29
2022-09-04T00:34:00.572Z,15.20
2022-09-04T00:38:31.368Z,15.26
2022-09-04T00:43:07.057Z,15.16
2022-09-04T00:47:40.780Z,15.05
2022-09-04T00:52:03.301Z,14.97
2022-09-04T00:56:25.209Z,15.04
2022-09-04T01:00:28.465Z,14.93
2022-09-04T01:05:09.656Z,14.89
2022-09-04T01:09:53.954Z,14.92
2022-09-04T01:14:00.719Z,14.76
2022-09-04T01:18:30.797Z,14.77
2022-09-04T01:22:51.672Z,14.75
2022-09-04T01:27:03.100Z,14.73
2022-09-04T01:31:18.374Z,14.83
2022-09-04T01:35:44.483Z,14.67
2022-09-04T01:39:57.913Z,14.55
2022-09-04T01:43:59.795Z,14.60
2022-09-04T01:48:07.934Z,14.54
2022-09-04T01:52:09.309Z,14.57
2022-09-04T01:56:21.182Z,14.44
2022-09-04T02:00:25.050Z,14.63
2022-09-04T02:05:03.978Z,14.26
2022-09-04T02:09:21.805Z,14.40
2022-09-04T02:14:04.284Z,14.35
2022-09-04T02:18:24.607Z,14.30
2022-09-04T02:22:44.931Z,14.22
2022-09-04T02:27:05.478Z,14.20
2022-09-04T02:31:17.044Z,14.26
2022-09-04T02:35:39.840Z,14.31
2022-09-04T02:40:04.059Z,14.31
2022-09-04T02:44:27.195Z,14.24
2022-09-04T02:48:40.993Z,14.36
2022-09-04T02:53:08.051Z,14.30
2022-09-04T02:57:47.966Z,14.44
2022-09-04T03:02:00.474Z,14.28
2022-09-04T03:06:10.751Z,14.34
2022-09-04T03:10:24.688Z,14.37
2022-09-04T03:14:38.335Z,14.36
2022-09-04T03:19:05.053Z,14.41
2022-09-04T03:23:35.457Z,14.27
2022-09-04T03:27:37.462Z,14.06
2022-09-04T03:32:15.114Z,14.28
2022-09-04T03:36:40.163Z,14.14
2022-09-04T03:40:49.978Z,13.98
2022-09-04T03:45:09.641Z,13.98
2022-09-04T03:49:22.307Z,14.03
2022-09-04T03:53:42.846Z,13.98
2022-09-04T03:58:29.207Z,13.97
2022-09-04T04:02:55.917Z,13.94
2022-09-04T04:07:13.782Z,13.94
2022-09-04T04:11:43.312Z,14.02
2022-09-04T04:16:03.505Z,13.99
2022-09-04T04:20:29.553Z,13.83
2022-09-04T04:24:50.427Z,13.78
2022-09-04T04:28:59.825Z,13.87
2022-09-04T04:33:30.826Z,13.91
2022-09-04T04:37:59.322Z,13.80
2022-09-04T04:42:09.011Z,13.73
2022-09-04T04:46:29.207Z,13.71
2022-09-04T04:50:59.371Z,13.54
2022-09-04T04:55:10.895Z,13.63
2022-09-04T04:59:23.440Z,13.51
2022-09-04T05:03:37.658Z,13.48
2022-09-04T05:07:48.100Z,13.58
2022-09-04T05:12:02.271Z,13.54
2022-09-04T05:16:19.314Z,13.44
2022-09-04T05:20:35.334Z,13.58
2022-09-04T05:25:00.088Z,13.34
2022-09-04T05:29:21.668Z,13.54
2022-09-04T05:33:30.470Z,13.52
2022-09-04T05:37:55.731Z,13.56
2022-09-04T05:42:34.458Z,13.70
2022-09-04T05:46:38.950Z,13.81
2022-09-04T05:50:47.521Z,13.71
2022-09-04T05:55:03.460Z,13.70
2022-09-04T05:59:19.933Z,13.55
2022-09-04T06:03:55.688Z,13.62
2022-09-04T06:08:28.935Z,13.57
2022-09-04T06:13:01.991Z,13.68
2022-09-04T06:17:22.860Z,13.84
2022-09-04T06:21:33.961Z,13.90
2022-09-04T06:26:00.357Z,14.20
2022-09-04T06:30:16.120Z,14.31
2022-09-04T06:34:58.872Z,14.55
2022-09-04T06:39:19.034Z,14.46
2022-09-04T06:43:24.626Z,14.69
2022-09-04T06:47:36.847Z,14.72
2022-09-04T06:52:03.207Z,14.88
2022-09-04T06:56:14.423Z,15.00
2022-09-04T07:00:18.054Z,15.22
2022-09-04T07:04:44.567Z,15.38
2022-09-04T07:09:03.520Z,15.55
2022-09-04T07:13:29.358Z,15.86
2022-09-04T07:17:42.146Z,16.15
2022-09-04T07:22:09.132Z,16.14
2022-09-04T07:26:11.153Z,16.45
2022-09-04T07:30:16.027Z,16.39
2022-09-04T07:34:38.601Z,16.71
2022-09-04T07:38:56.990Z,16.65
2022-09-04T07:43:11.127Z,16.83
2022-09-04T07:47:35.535Z,17.16
2022-09-04T07:51:45.699Z,17.23
2022-09-04T07:55:52.648Z,17.37
2022-09-04T08:00:10.292Z,17.43
2022-09-04T08:04:38.055Z,17.68
2022-09-04T08:09:18.125Z,18.02
2022-09-04T08:13:35.469Z,18.31
2022-09-04T08:18:01.511Z,18.60
2022-09-04T08:22:04.976Z,18.71
2022-09-04T08:26:14.972Z,18.42
2022-09-04T08:30:20.259Z,18.75
2022-09-04T08:34:47.536Z,18.78
2022-09-04T08:38:56.432Z,18.72
2022-09-04T08:43:04.112Z,19.14
2022-09-04T08:47:35.478Z,19.64
2022-09-04T08:52:08.856Z,19.74
2022-09-04T08:56:28.420Z,20.08
2022-09-04T09:00:48.077Z,20.47
2022-09-04T09:05:08.969Z,20.82
2022-09-04T09:09:10.350Z,20.66
2022-09-04T09:13:35.088Z,20.52
2022-09-04T09:17:53.866Z,20.77
2022-09-04T09:22:10.425Z,20.45
2022-09-04T09:26:29.409Z,20.66
2022-09-04T09:31:19.023Z,21.31
2022-09-04T09:39:58.706Z,21.08
2022-09-04T09:44:00.890Z,21.63
2022-09-04T09:48:33.453Z,21.86
2022-09-04T09:53:10.134Z,22.05
2022-09-04T09:57:36.611Z,22.15
2022-09-04T10:02:16.450Z,22.22
2022-09-04T10:06:59.219Z,22.47
2022-09-04T10:11:23.670Z,22.32
2022-09-04T10:15:28.612Z,22.91
2022-09-04T10:19:58.699Z,23.23
2022-09-04T10:24:07.033Z,23.38
2022-09-04T10:28:42.583Z,23.11
2022-09-04T10:33:11.750Z,23.64
2022-09-04T10:37:41.328Z,23.55
2022-09-04T10:42:16.813Z,24.05
2022-09-04T10:46:28.823Z,24.03
2022-09-04T10:51:00.036Z,24.03
2022-09-04T10:55:31.395Z,24.69
2022-09-04T11:00:05.738Z,24.96
2022-09-04T11:04:13.916Z,25.59
2022-09-04T11:08:39.679Z,25.25
2022-09-04T11:13:03.536Z,25.56
2022-09-04T11:17:51.599Z,25.15
2022-09-04T11:22:12.616Z,25.21
2022-09-04T11:26:53.532Z,24.80
2022-09-04T11:31:01.757Z,25.37
2022-09-04T11:35:22.160Z,25.33
2022-09-04T11:39:48.565Z,25.36
2022-09-04T11:44:07.085Z,26.16
2022-09-04T11:48:31.133Z,25.60
2022-09-04T11:52:46.639Z,25.76
2022-09-04T11:57:29.662Z,25.75
2022-09-04T12:01:31.011Z,26.34
2022-09-04T12:05:50.865Z,26.53
2022-09-04T12:10:26.575Z,26.37
2022-09-04T12:14:54.662Z,25.92
2022-09-04T12:19:39.859Z,25.91
2022-09-04T12:24:22.817Z,25.83
2022-09-04T12:29:03.199Z,26.60
2022-09-04T12:33:38.727Z,26.33
2022-09-04T12:37:43.639Z,26.79
2022-09-04T12:42:18.919Z,26.94
2022-09-04T12:46:50.249Z,26.89
2022-09-04T12:50:51.696Z,27.14
2022-09-04T12:55:37.178Z,26.65
2022-09-04T13:00:08.981Z,26.93
2022-09-04T13:04:27.870Z,26.70
2022-09-04T13:08:32.333Z,27.04
2022-09-04T13:13:05.074Z,27.67
2022-09-04T13:17:24.415Z,27.18
2022-09-04T13:21:51.581Z,27.17
2022-09-04T13:26:06.207Z,27.63
2022-09-04T13:30:24.525Z,27.75
2022-09-04T13:34:38.064Z,27.60
2022-09-04T13:38:51.739Z,27.39
2022-09-04T13:43:22.582Z,27.18
2022-09-04T13:47:31.926Z,28.20
2022-09-04T13:51:40.659Z,26.79
2022-09-04T13:55:49.869Z,27.08
2022-09-04T13:59:55.441Z,27.79
2022-09-04T14:04:04.947Z,27.63
2022-09-04T14:08:14.661Z,27.94
2022-09-04T14:12:57.611Z,26.94
2022-09-04T14:17:00.079Z,27.48
2022-09-04T14:21:14.857Z,26.82
2022-09-04T14:25:22.045Z,27.71
2022-09-04T14:29:50.021Z,27.33
2022-09-04T14:34:20.866Z,27.20
2022-09-04T14:38:54.333Z,27.66
2022-09-04T14:43:04.784Z,27.68
2022-09-04T14:47:26.043Z,26.23
2022-09-04T14:51:27.490Z,27.06
2022-09-04T14:55:32.468Z,27.57
2022-09-04T14:59:41.270Z,26.98
2022-09-04T15:03:55.325Z,27.01
2022-09-04T15:08:00.399Z,25.93
2022-09-04T15:12:25.960Z,25.52
2022-09-04T15:16:39.263Z,25.64
2022-09-04T15:20:53.996Z,25.55
2022-09-04T15:25:05.126Z,25.20
2022-09-04T15:29:14.199Z,25.33
2022-09-04T15:33:19.905Z,24.73
2022-09-04T15:37:28.598Z,24.75
2022-09-04T15:41:33.978Z,24.32
2022-09-04T15:45:53.538Z,23.99
2022-09-04T15:50:00.363Z,24.22
2022-09-04T15:54:11.757Z,24.28
2022-09-04T15:58:33.313Z,23.94
2022-09-04T16:02:51.476Z,23.75
2022-09-04T16:07:01.937Z,23.57
2022-09-04T16:11:11.688Z,23.86
2022-09-04T16:15:22.299Z,23.73
2022-09-04T16:19:53.914Z,23.58
2022-09-04T16:23:59.686Z,23.33
2022-09-04T16:28:07.987Z,23.18
2022-09-04T16:32:12.163Z,22.88
2022-09-04T16:36:40.157Z,23.42
2022-09-04T16:40:48.661Z,23.34
2022-09-04T16:45:16.892Z,23.13
2022-09-04T16:49:29.744Z,23.41
2022-09-04T16:53:43.494Z,23.57
2022-09-04T16:58:07.371Z,22.62
2022-09-04T17:02:51.151Z,22.51
2022-09-04T17:07:09.582Z,22.65
2022-09-04T17:11:55.885Z,22.10
2022-09-04T17:16:22.323Z,22.26
2022-09-04T17:21:39.703Z,22.13
2022-09-04T17:29:19.375Z,21.81
2022-09-04T17:29:48.041Z,21.52
2022-09-04T17:40:06.247Z,21.57
2022-09-04T17:40:49.400Z,21.40
2022-09-04T17:43:22.723Z,21.27
2022-09-04T17:47:34.176Z,21.22
2022-09-04T17:51:36.757Z,21.14
2022-09-04T17:55:47.625Z,20.97
2022-09-04T18:00:02.064Z,21.19
2022-09-04T18:04:21.863Z,21.07
2022-09-04T18:08:32.729Z,20.85
2022-09-04T18:12:43.911Z,20.83
2022-09-04T18:17:16.219Z,20.36
2022-09-04T18:21:35.767Z,20.22
2022-09-04T18:25:55.699Z,20.20
2022-09-04T18:32:20.317Z,20.00
2022-09-04T18:37:22.282Z,19.94
2022-09-04T18:39:21.047Z,19.90
2022-09-04T18:50:25.756Z,19.88
2022-09-04T18:50:50.652Z,19.61
2022-09-04T18:52:22.519Z,19.24
2022-09-04T18:56:30.700Z,19.25
2022-09-04T19:00:41.001Z,18.76
2022-09-04T19:05:00.338Z,18.86
2022-09-04T19:09:12.065Z,18.85
2022-09-04T19:13:22.155Z,18.76
2022-09-04T19:17:34.983Z,18.72
2022-09-04T19:21:39.897Z,18.54
2022-09-04T19:25:47.966Z,18.46
2022-09-04T19:30:23.907Z,18.05
2022-09-04T19:34:35.419Z,18.25
2022-09-04T19:45:55.886Z,18.24
2022-09-04T19:46:15.504Z,18.16
2022-09-04T19:48:35.516Z,17.90
2022-09-04T19:53:31.988Z,18.02
2022-09-04T19:57:41.187Z,17.99
2022-09-04T20:02:02.739Z,17.82
2022-09-04T20:06:21.853Z,17.62
2022-09-04T20:10:42.101Z,17.48
2022-09-04T20:14:56.115Z,17.50
2022-09-04T20:19:14.790Z,17.50
2022-09-04T20:23:51.010Z,17.52
2022-09-04T20:28:20.201Z,17.71
2022-09-04T20:32:28.366Z,17.63
2022-09-04T20:36:35.680Z,17.55
2022-09-04T20:40:43.847Z,17.60
2022-09-04T20:46:46.926Z,17.49
2022-09-04T20:52:55.062Z,17.44
2022-09-04T20:54:28.353Z,17.27
2022-09-04T21:03:11.417Z,17.30
2022-09-04T21:03:44.772Z,17.32
2022-09-04T21:08:02.619Z,16.91
2022-09-04T21:12:23.142Z,16.98
2022-09-04T21:16:59.533Z,17.06
2022-09-04T21:21:15.966Z,17.10
2022-09-04T21:25:31.440Z,16.90
2022-09-04T21:30:18.286Z,17.05
2022-09-04T21:34:32.489Z,17.13
2022-09-04T21:38:57.258Z,17.17
2022-09-04T21:43:20.433Z,16.73
2022-09-04T21:48:02.996Z,17.03
2022-09-04T21:52:27.325Z,16.99
2022-09-04T22:02:25.139Z,16.83
2022-09-04T22:02:49.496Z,16.76
2022-09-04T22:06:23.050Z,16.76
2022-09-04T22:13:38.284Z,16.55
2022-09-04T22:15:10.379Z,16.54
2022-09-04T22:19:22.479Z,16.58
2022-09-04T22:24:02.189Z,16.48
2022-09-04T22:28:45.365Z,16.23
2022-09-04T22:33:17.687Z,16.39
2022-09-04T22:37:50.137Z,16.12
2022-09-04T22:42:20.678Z,16.14
2022-09-04T22:46:54.657Z,16.43
2022-09-04T22:51:11.487Z,16.18
2022-09-04T22:55:40.242Z,16.10
2022-09-04T23:00:08.830Z,16.33
2022-09-04T23:04:25.354Z,16.33
2022-09-04T23:13:44.394Z,16.32
2022-09-04T23:13:58.886Z,16.10
2022-09-04T23:17:58.327Z,16.06
2022-09-04T23:26:47.348Z,16.15
2022-09-04T23:27:00.781Z,16.02
2022-09-04T23:31:40.491Z,15.81
2022-09-04T23:35:54.006Z,16.14
2022-09-04T23:40:28.408Z,15.95
2022-09-04T23:44:54.708Z,16.03
2022-09-04T23:49:24.909Z,15.91
2022-09-04T23:53:35.298Z,15.95
2022-09-04T23:57:44.655Z,15.81
